Time;durP1;ratioP1;P1;durP2;ratioP2;P2;SDS_P1;SDS_P2;PMS_P1;PMS_P2;Temp;Humidity;BMP_temperature;BMP_pressure;BME280_temperature;BME280_humidity;BME280_pressure;Samples;Min_cycle;Max_cycle;Signal;HPM_P1;HPM_P2
2021/01/01 00:01:46;;;;;;;27.97;15.60;;;;;;;-2.13;93.81;99095.43;1843392;77;25281;-75
2021/01/01 00:04:13;;;;;;;26.77;15.13;;;;;;;-2.09;93.97;99090.55;1827764;77;25065;-75
2021/01/01 00:06:47;;;;;;;32.50;17.13;;;;;;;-2.09;93.90;99093.58;1785720;79;25266;-75
2021/01/01 00:09:14;;;;;;;29.73;15.53;;;;;;;-2.11;93.81;99092.77;1812786;78;25196;-75
2021/01/01 00:11:40;;;;;;;31.13;18.10;;;;;;;-2.11;93.96;99088.91;1812703;79;25209;-75
2021/01/01 00:14:08;;;;;;;25.23;14.77;;;;;;;-2.10;94.02;99094.47;1812862;78;25301;-75
2021/01/01 00:16:34;;;;;;;27.67;15.77;;;;;;;-2.13;93.76;99099.72;1812863;79;25314;-75
2021/01/01 00:19:01;;;;;;;27.33;15.93;;;;;;;-2.15;93.84;99102.80;1812681;78;25844;-75
2021/01/01 00:21:31;;;;;;;26.17;15.73;;;;;;;-2.15;93.81;99103.63;1812726;79;25115;-75
2021/01/01 00:23:58;;;;;;;31.47;17.30;;;;;;;-2.13;93.92;99101.00;1812625;78;25330;-75
2021/01/01 00:26:25;;;;;;;29.57;17.20;;;;;;;-2.12;93.83;99100.13;1812889;78;25471;-75
2021/01/01 00:28:52;;;;;;;29.60;16.63;;;;;;;-2.11;93.84;99101.36;1812667;78;25499;-75
2021/01/01 00:31:22;;;;;;;28.00;16.23;;;;;;;-2.04;93.90;99109.72;1812879;78;25246;-75
2021/01/01 00:33:49;;;;;;;26.70;15.43;;;;;;;-1.99;93.85;99118.59;1812875;78;25068;-76
2021/01/01 00:36:16;;;;;;;24.70;14.63;;;;;;;-2.02;93.70;99119.98;1812698;78;25394;-76
2021/01/01 00:38:52;;;;;;;23.87;13.07;;;;;;;-2.03;93.65;99125.56;1813007;78;25061;-77
2021/01/01 00:41:35;;;;;;;25.23;13.97;;;;;;;-2.09;93.64;99127.91;1812718;78;25089;-75
2021/01/01 00:44:02;;;;;;;25.23;13.77;;;;;;;-2.11;93.64;99124.98;1812677;78;25310;-75
2021/01/01 00:46:31;;;;;;;31.27;17.40;;;;;;;-2.15;93.66;99121.67;1812663;79;25660;-75
2021/01/01 00:48:58;;;;;;;27.67;15.67;;;;;;;-2.13;93.65;99126.77;1785914;79;25123;-76
2021/01/01 00:51:31;;;;;;;30.53;16.40;;;;;;;-2.11;93.73;99125.84;1812686;78;25061;-75
2021/01/01 00:54:05;;;;;;;30.37;17.00;;;;;;;-2.06;93.84;99125.70;1889317;76;26873;-75
2021/01/01 00:56:32;;;;;;;31.27;17.50;;;;;;;-2.10;93.72;99122.81;1860211;77;25643;-75
2021/01/01 00:58:59;;;;;;;34.97;17.70;;;;;;;-2.11;93.80;99128.42;1860216;77;25252;-75
2021/01/01 01:01:27;;;;;;;29.27;17.50;;;;;;;-2.09;93.79;99127.08;1860283;77;25194;-76
2021/01/01 01:03:55;;;;;;;24.93;14.60;;;;;;;-2.06;93.79;99138.13;1860023;77;25258;-76
2021/01/01 01:06:23;;;;;;;33.17;16.83;;;;;;;-2.01;93.87;99124.23;1860264;77;25264;-75
2021/01/01 01:08:50;;;;;;;25.03;14.27;;;;;;;-2.01;93.88;99127.66;1860347;77;25198;-76
2021/01/01 01:11:25;;;;;;;28.50;16.03;;;;;;;-2.00;93.82;99120.31;1860117;76;25201;-75
2021/01/01 01:13:55;;;;;;;28.60;17.27;;;;;;;-2.03;93.77;99120.86;1859961;77;25361;-75
2021/01/01 01:16:25;;;;;;;28.87;17.13;;;;;;;-2.03;93.72;99120.41;1860095;77;25598;-75
2021/01/01 01:18:52;;;;;;;23.40;13.40;;;;;;;-2.02;93.69;99117.41;1859633;77;25216;-75
2021/01/01 01:21:20;;;;;;;22.80;13.77;;;;;;;-1.96;93.87;99114.17;1860267;77;25293;-76
2021/01/01 01:23:47;;;;;;;27.03;15.63;;;;;;;-1.95;93.77;99115.84;1860130;77;25123;-75
2021/01/01 01:26:14;;;;;;;28.37;14.80;;;;;;;-1.96;93.69;99114.17;1860236;77;25249;-75
2021/01/01 01:28:41;;;;;;;24.63;14.63;;;;;;;-1.93;93.67;99115.36;1860399;77;25198;-76
2021/01/01 01:31:08;;;;;;;26.93;15.27;;;;;;;-1.93;93.62;99108.91;1860389;77;25367;-76
2021/01/01 01:33:34;;;;;;;27.60;16.33;;;;;;;-1.96;93.50;99111.59;1860065;77;25790;-75
2021/01/01 01:36:01;;;;;;;28.60;16.50;;;;;;;-1.97;93.59;99107.32;1860147;77;25256;-75
2021/01/01 01:38:28;;;;;;;29.23;16.20;;;;;;;-1.96;93.65;99110.73;1860375;77;25316;-74
2021/01/01 01:40:55;;;;;;;25.90;15.07;;;;;;;-1.92;93.64;99116.19;1860285;77;25103;-75
2021/01/01 01:43:23;;;;;;;24.13;13.53;;;;;;;-1.88;93.59;99115.17;1860084;77;25613;-75
2021/01/01 01:45:49;;;;;;;26.67;15.63;;;;;;;-1.84;93.58;99114.61;1860141;77;25680;-75
2021/01/01 01:48:20;;;;;;;26.50;14.97;;;;;;;-1.83;93.55;99117.14;1860106;77;25352;-75
2021/01/01 01:50:47;;;;;;;26.23;15.00;;;;;;;-1.82;93.50;99116.72;1844762;77;25694;-73
2021/01/01 01:53:14;;;;;;;26.40;15.37;;;;;;;-1.84;93.40;99121.06;1826404;78;25280;-74
2021/01/01 01:55:40;;;;;;;23.60;14.73;;;;;;;-1.85;93.41;99120.69;1826398;77;25284;-73
2021/01/01 01:58:07;;;;;;;24.40;13.77;;;;;;;-1.86;93.46;99124.98;1821309;78;25252;-76
2021/01/01 02:03:19;;;;;;;25.93;14.60;;;;;;;-1.93;93.57;99122.23;1826387;78;25312;-76
2021/01/01 02:05:46;;;;;;;24.30;14.93;;;;;;;-1.95;93.38;99120.98;1825661;78;25687;-75
2021/01/01 02:08:13;;;;;;;24.00;14.10;;;;;;;-1.97;93.37;99129.23;1825706;78;25350;-73
2021/01/01 02:10:40;;;;;;;26.50;14.57;;;;;;;-1.96;93.39;99119.75;1825853;78;25730;-75
2021/01/01 02:13:06;;;;;;;25.37;14.10;;;;;;;-1.95;93.43;99130.47;1825774;78;25420;-75
2021/01/01 02:15:33;;;;;;;28.20;16.33;;;;;;;-2.00;93.36;99120.77;1825699;78;25539;-75
2021/01/01 02:18:01;;;;;;;26.43;15.03;;;;;;;-2.03;93.36;99114.42;1825848;78;25259;-75
2021/01/01 02:20:27;;;;;;;23.70;12.93;;;;;;;-2.10;93.36;99112.50;1825848;78;25196;-75
2021/01/01 02:22:54;;;;;;;26.17;15.97;;;;;;;-2.10;93.34;99112.50;1825784;78;25627;-75
2021/01/01 02:25:21;;;;;;;24.83;13.07;;;;;;;-2.11;93.46;99113.38;1825859;78;25300;-76
2021/01/01 02:27:47;;;;;;;25.13;15.13;;;;;;;-2.13;93.65;99116.05;1825867;78;25251;-75
2021/01/01 02:30:15;;;;;;;24.03;13.50;;;;;;;-2.10;93.71;99110.76;1825749;77;25248;-76
2021/01/01 02:32:42;;;;;;;23.70;13.83;;;;;;;-2.14;93.47;99105.78;1825739;78;25121;-76
2021/01/01 02:35:09;;;;;;;32.47;16.53;;;;;;;-2.14;93.43;99103.20;1825688;78;25726;-76
2021/01/01 02:37:36;;;;;;;27.10;15.20;;;;;;;-2.17;93.58;99109.75;1825711;78;25306;-76
2021/01/01 02:40:06;;;;;;;31.03;16.40;;;;;;;-2.14;93.49;99105.33;1825671;78;25635;-75
2021/01/01 02:42:34;;;;;;;21.37;11.53;;;;;;;-2.12;93.49;99107.86;1825204;78;25192;-76
2021/01/01 02:45:00;;;;;;;27.67;16.30;;;;;;;-2.18;94.06;99105.02;1825911;78;25268;-76
2021/01/01 02:47:27;;;;;;;26.40;14.57;;;;;;;-2.18;93.62;99108.89;1825810;78;25188;-75
2021/01/01 02:49:54;;;;;;;27.90;14.77;;;;;;;-2.17;93.64;99100.73;1825751;77;25675;-75
2021/01/01 02:52:20;;;;;;;26.47;14.60;;;;;;;-2.15;93.72;99104.92;1825654;78;25263;-76
2021/01/01 02:54:47;;;;;;;24.77;13.63;;;;;;;-2.11;93.71;99104.36;1825059;78;25372;-76
2021/01/01 02:57:14;;;;;;;24.83;13.60;;;;;;;-2.10;93.63;99097.88;1825842;78;25330;-73
2021/01/01 02:59:40;;;;;;;29.07;14.53;;;;;;;-2.10;93.55;99090.59;1825884;78;25271;-76
2021/01/01 03:02:07;;;;;;;24.37;13.43;;;;;;;-2.11;93.59;99093.63;1825635;78;25196;-75
2021/01/01 03:04:34;;;;;;;28.40;15.07;;;;;;;-2.05;93.64;99088.70;1825823;78;25200;-76
2021/01/01 03:07:01;;;;;;;23.33;14.00;;;;;;;-2.07;93.61;99089.21;1825727;78;25244;-76
2021/01/01 03:09:27;;;;;;;26.13;14.40;;;;;;;-2.03;93.65;99085.63;1825916;78;25256;-76
2021/01/01 03:11:54;;;;;;;22.00;13.13;;;;;;;-2.07;93.60;99087.47;1825833;78;25287;-76
2021/01/01 03:14:20;;;;;;;26.13;15.13;;;;;;;-2.08;93.71;99088.80;1825830;78;25208;-75
2021/01/01 03:16:47;;;;;;;25.70;14.67;;;;;;;-2.09;93.78;99087.97;1825689;78;25239;-76
2021/01/01 03:19:14;;;;;;;27.83;14.43;;;;;;;-2.07;93.77;99088.75;1825847;78;25204;-76
2021/01/01 03:21:40;;;;;;;28.30;15.47;;;;;;;-2.05;93.69;99092.11;1825751;78;25322;-76
2021/01/01 03:24:07;;;;;;;25.23;15.00;;;;;;;-1.99;93.80;99094.95;1825815;78;25207;-76
2021/01/01 03:26:34;;;;;;;27.07;13.40;;;;;;;-1.95;93.82;99099.08;1793771;78;25318;-76
2021/01/01 03:29:00;;;;;;;28.30;13.90;;;;;;;-1.91;93.81;99095.95;1825779;78;25691;-76
2021/01/01 03:31:27;;;;;;;27.37;15.43;;;;;;;-1.90;93.74;99095.89;1825677;78;25338;-75
2021/01/01 03:33:54;;;;;;;27.57;14.90;;;;;;;-1.90;93.72;99094.61;1825700;78;25192;-75
2021/01/01 03:36:20;;;;;;;24.40;14.00;;;;;;;-1.92;93.75;99089.95;1825662;78;25303;-75
2021/01/01 03:38:47;;;;;;;26.57;15.50;;;;;;;-1.90;93.65;99081.72;1825818;78;25378;-76
2021/01/01 03:41:14;;;;;;;22.47;13.17;;;;;;;-1.85;93.64;99085.89;1825653;78;25208;-75
2021/01/01 03:43:41;;;;;;;29.27;15.97;;;;;;;-1.83;93.82;99081.51;1825807;78;26410;-75
2021/01/01 03:46:07;;;;;;;23.57;13.80;;;;;;;-1.80;93.69;99079.66;1825823;78;25338;-76
2021/01/01 03:48:34;;;;;;;19.47;11.70;;;;;;;-1.82;93.57;99084.49;1825893;78;25172;-76
2021/01/01 03:51:00;;;;;;;23.63;14.83;;;;;;;-1.87;93.62;99076.45;1825680;77;25782;-76
2021/01/01 03:53:27;;;;;;;24.90;14.93;;;;;;;-1.88;93.66;99074.80;1825498;78;25220;-76
2021/01/01 03:55:54;;;;;;;21.50;12.20;;;;;;;-1.90;93.60;99074.44;1825893;78;25704;-76
2021/01/01 03:58:21;;;;;;;23.67;13.20;;;;;;;-1.89;93.58;99073.10;1825796;78;25081;-75
2021/01/01 04:00:47;;;;;;;23.10;13.33;;;;;;;-1.94;93.73;99074.17;1825736;78;25707;-76
2021/01/01 04:03:14;;;;;;;23.67;13.83;;;;;;;-1.96;93.71;99072.07;1825620;78;25310;-76
2021/01/01 04:05:41;;;;;;;25.50;13.37;;;;;;;-1.97;93.62;99074.27;1825716;78;25145;-75
2021/01/01 04:08:07;;;;;;;23.80;13.60;;;;;;;-2.00;93.90;99076.50;1825954;78;25069;-76
2021/01/01 04:10:34;;;;;;;27.03;14.73;;;;;;;-2.05;94.05;99076.65;1825767;78;25302;-75
2021/01/01 04:13:01;;;;;;;23.80;13.83;;;;;;;-2.04;93.82;99074.94;1825698;78;25293;-76
2021/01/01 04:15:28;;;;;;;28.77;15.97;;;;;;;-2.03;93.79;99081.75;1825848;78;25228;-75
2021/01/01 04:17:54;;;;;;;25.83;15.33;;;;;;;-2.01;93.97;99081.70;1825605;78;25245;-75
2021/01/01 04:20:21;;;;;;;29.90;15.23;;;;;;;-1.99;93.91;99077.36;1825782;78;25123;-75
2021/01/01 04:22:48;;;;;;;25.60;14.93;;;;;;;-1.99;93.96;99078.19;1825757;78;25370;-75
2021/01/01 04:25:15;;;;;;;26.00;14.30;;;;;;;-1.96;93.91;99078.09;1825723;78;25279;-75
2021/01/01 04:27:41;;;;;;;25.10;14.07;;;;;;;-1.99;94.07;99080.77;1825722;78;25722;-76
2021/01/01 04:30:10;;;;;;;27.87;15.47;;;;;;;-1.97;93.91;99082.01;1825605;78;25160;-75
2021/01/01 04:32:37;;;;;;;28.97;16.03;;;;;;;-1.96;93.94;99086.25;1825729;78;25133;-77
2021/01/01 04:35:04;;;;;;;33.43;17.83;;;;;;;-1.90;93.91;99090.73;1825738;78;25263;-75
2021/01/01 04:37:31;;;;;;;30.70;17.30;;;;;;;-1.84;93.91;99077.23;1825696;78;25532;-75
2021/01/01 04:39:58;;;;;;;31.57;16.17;;;;;;;-1.83;94.11;99088.78;1825650;78;25244;-75
2021/01/01 04:42:24;;;;;;;31.83;17.10;;;;;;;-1.81;93.92;99085.73;1825672;78;25278;-75
2021/01/01 04:44:51;;;;;;;28.60;16.20;;;;;;;-1.77;93.86;99089.86;1825753;78;25223;-75
2021/01/01 04:47:18;;;;;;;27.60;15.20;;;;;;;-1.74;93.96;99090.22;1825817;78;25351;-75
2021/01/01 04:49:45;;;;;;;26.27;14.57;;;;;;;-1.72;93.83;99085.84;1825696;77;25256;-75
2021/01/01 04:52:12;;;;;;;28.10;15.77;;;;;;;-1.71;93.79;99093.95;1825782;78;25315;-75
2021/01/01 04:54:39;;;;;;;30.50;16.63;;;;;;;-1.72;93.72;99091.83;1813000;78;25312;-75
2021/01/01 04:57:05;;;;;;;26.53;13.20;;;;;;;-1.69;93.70;99090.89;1801295;78;25637;-76
2021/01/01 04:59:32;;;;;;;27.63;14.50;;;;;;;-1.71;93.82;99093.95;1801378;78;25268;-76
2021/01/01 05:01:59;;;;;;;40.77;18.20;;;;;;;-1.70;93.66;99089.20;1801438;78;25157;-75
2021/01/01 05:04:26;;;;;;;29.60;15.67;;;;;;;-1.73;93.71;99087.55;1801347;78;25225;-76
2021/01/01 05:06:53;;;;;;;29.73;16.10;;;;;;;-1.77;93.66;99089.86;1801291;79;25194;-75
2021/01/01 05:09:19;;;;;;;32.63;17.17;;;;;;;-1.72;93.82;99094.41;1772470;79;25314;-75
2021/01/01 05:11:46;;;;;;;29.90;16.17;;;;;;;-1.69;93.77;99087.86;1801340;79;25260;-76
2021/01/01 05:14:13;;;;;;;33.23;17.87;;;;;;;-1.69;93.90;99084.45;1801370;78;25267;-76
2021/01/01 05:16:40;;;;;;;32.13;17.73;;;;;;;-1.69;93.82;99083.98;1801292;79;25432;-75
2021/01/01 05:19:12;;;;;;;31.50;17.23;;;;;;;-1.66;93.89;99084.31;1772724;79;25228;-76
2021/01/01 05:21:39;;;;;;;32.10;16.60;;;;;;;-1.62;93.88;99082.48;1800879;78;25146;-76
2021/01/01 05:24:07;;;;;;;29.47;15.90;;;;;;;-1.64;93.83;99085.55;1801365;79;25055;-76
2021/01/01 05:26:33;;;;;;;22.33;12.43;;;;;;;-1.66;93.82;99081.73;1801418;79;25047;-76
2021/01/01 05:29:06;;;;;;;30.40;15.80;;;;;;;-1.66;93.91;99084.31;1801386;78;25114;-76
2021/01/01 05:31:40;;;;;;;29.87;15.00;;;;;;;-1.66;93.81;99081.73;1801410;78;25621;-76
2021/01/01 05:34:11;;;;;;;27.47;14.53;;;;;;;-1.66;93.87;99086.05;1801531;78;25063;-75
2021/01/01 05:36:45;;;;;;;37.27;17.50;;;;;;;-1.67;93.97;99090.38;1801434;78;25328;-74
2021/01/01 05:39:22;;;;;;;29.00;15.07;;;;;;;-1.66;94.03;99084.31;1801559;78;25178;-75
2021/01/01 05:41:52;;;;;;;29.80;15.83;;;;;;;-1.68;93.94;99082.24;1801607;79;25209;-75
2021/01/01 05:44:29;;;;;;;28.63;15.70;;;;;;;-1.71;93.92;99079.34;1801542;78;25928;-74
2021/01/01 05:47:06;;;;;;;27.13;14.60;;;;;;;-1.70;94.21;99076.30;1801660;78;25703;-74
2021/01/01 05:49:38;;;;;;;27.83;14.90;;;;;;;-1.70;94.36;99086.16;1801693;78;25071;-75
2021/01/01 05:52:18;;;;;;;36.43;17.93;;;;;;;-1.67;94.17;99090.38;1801464;78;25604;-74
2021/01/01 05:55:04;;;;;;;36.93;18.07;;;;;;;-1.68;94.53;99087.40;1811628;77;25255;-75
2021/01/01 05:57:39;;;;;;;31.57;17.03;;;;;;;-1.66;94.21;99096.38;1825707;78;25153;-74
2021/01/01 06:00:11;;;;;;;36.07;17.10;;;;;;;-1.66;94.32;99104.94;1825822;78;25204;-74
2021/01/01 06:02:39;;;;;;;33.20;16.37;;;;;;;-1.65;94.16;99106.63;1825939;78;25223;-75
2021/01/01 06:05:08;;;;;;;41.73;17.77;;;;;;;-1.64;94.23;99107.46;1825842;78;25215;-75
2021/01/01 06:07:39;;;;;;;32.83;17.00;;;;;;;-1.60;94.27;99118.91;1825817;78;25070;-75
2021/01/01 06:10:09;;;;;;;36.40;17.40;;;;;;;-1.59;94.26;99109.42;1825847;78;25212;-75
2021/01/01 06:12:37;;;;;;;39.07;17.83;;;;;;;-1.59;94.26;99113.30;1825910;77;25618;-75
2021/01/01 06:15:06;;;;;;;35.00;17.50;;;;;;;-1.57;94.22;99109.78;1825758;78;25624;-74
2021/01/01 06:17:48;;;;;;;30.43;15.50;;;;;;;-1.58;94.42;99109.37;1825934;78;25061;-75
2021/01/01 06:20:20;;;;;;;32.77;17.30;;;;;;;-1.55;94.45;99114.88;1825922;78;25773;-75
2021/01/01 06:23:01;;;;;;;34.70;19.20;;;;;;;-1.53;94.32;99115.66;1826000;78;25121;-75
2021/01/01 06:25:28;;;;;;;35.20;18.63;;;;;;;-1.53;94.37;99112.62;1825752;78;25061;-74
2021/01/01 06:27:54;;;;;;;33.27;17.00;;;;;;;-1.50;94.28;99116.39;1825959;78;25263;-74
2021/01/01 06:30:25;;;;;;;32.30;17.03;;;;;;;-1.50;94.26;99111.23;1825922;78;25674;-75
2021/01/01 06:32:52;;;;;;;36.90;20.73;;;;;;;-1.51;94.49;99099.25;1825863;78;25324;-75
2021/01/01 06:35:21;;;;;;;34.57;17.83;;;;;;;-1.48;94.27;99105.19;1825822;78;25618;-75
2021/01/01 06:37:54;;;;;;;31.10;17.23;;;;;;;-1.46;94.37;99107.25;1825690;78;25717;-75
2021/01/01 06:40:34;;;;;;;31.87;15.57;;;;;;;-1.46;94.44;99105.50;1825980;78;25288;-76
2021/01/01 06:43:06;;;;;;;33.43;17.03;;;;;;;-1.48;94.35;99109.89;1825900;78;25078;-75
2021/01/01 06:45:39;;;;;;;32.23;17.33;;;;;;;-1.51;94.28;99108.28;1825828;78;25126;-74
2021/01/01 06:48:26;;;;;;;36.20;19.13;;;;;;;-1.55;94.29;99113.59;1825690;78;25671;-75
2021/01/01 06:50:53;;;;;;;31.73;16.77;;;;;;;-1.58;94.53;99110.66;1825933;77;25413;-76
2021/01/01 06:53:28;;;;;;;35.57;18.67;;;;;;;-1.56;94.51;99108.89;1825824;78;25384;-75
2021/01/01 06:56:09;;;;;;;32.37;18.17;;;;;;;-1.52;94.45;99107.88;1825844;78;25260;-75
2021/01/01 06:58:36;;;;;;;33.70;17.23;;;;;;;-1.48;94.42;99115.50;1793996;78;25074;-75
2021/01/01 07:01:06;;;;;;;34.70;18.63;;;;;;;-1.50;94.64;99107.81;1825851;78;25215;-75
2021/01/01 07:03:39;;;;;;;35.30;18.67;;;;;;;-1.51;94.67;99109.56;1824273;78;25746;-74
2021/01/01 07:06:11;;;;;;;34.03;17.90;;;;;;;-1.46;94.48;99111.13;1825832;78;25651;-74
2021/01/01 07:08:43;;;;;;;37.80;21.40;;;;;;;-1.44;94.76;99115.77;1825788;78;25192;-74
2021/01/01 07:11:19;;;;;;;36.77;19.40;;;;;;;-1.41;94.63;99113.91;1825801;78;25268;-75
2021/01/01 07:13:51;;;;;;;42.90;21.17;;;;;;;-1.37;94.56;99116.79;1826007;78;25173;-74
2021/01/01 07:16:26;;;;;;;36.27;17.83;;;;;;;-1.35;94.54;99123.19;1825831;78;25711;-74
2021/01/01 07:18:53;;;;;;;34.33;16.93;;;;;;;-1.31;94.57;99119.58;1794252;78;25539;-74
2021/01/01 07:21:21;;;;;;;43.10;22.47;;;;;;;-1.31;94.85;99117.86;1825768;78;25125;-74
2021/01/01 07:23:48;;;;;;;45.50;21.57;;;;;;;-1.29;94.67;99117.81;1825895;77;25280;-74
2021/01/01 07:26:17;;;;;;;34.20;18.00;;;;;;;-1.27;94.53;99119.88;1825749;78;25216;-74
2021/01/01 07:28:47;;;;;;;39.37;18.37;;;;;;;-1.28;94.61;99118.64;1825864;78;25263;-75
2021/01/01 07:31:17;;;;;;;32.47;16.47;;;;;;;-1.32;94.74;99117.45;1825786;78;25183;-74
2021/01/01 07:33:44;;;;;;;46.57;21.73;;;;;;;-1.32;94.84;99113.59;1825815;78;25046;-75
2021/01/01 07:36:12;;;;;;;43.63;20.73;;;;;;;-1.28;94.65;99116.89;1793735;78;25137;-75
2021/01/01 07:38:41;;;;;;;46.27;20.83;;;;;;;-1.27;94.66;99117.30;1825771;78;25315;-74
2021/01/01 07:41:07;;;;;;;46.40;20.13;;;;;;;-1.21;94.78;99118.33;1825662;78;25631;-75
2021/01/01 07:43:34;;;;;;;46.00;22.60;;;;;;;-1.18;95.05;99123.84;1825710;78;25211;-74
2021/01/01 07:46:03;;;;;;;46.20;23.57;;;;;;;-1.14;94.94;99126.26;1825888;77;25711;-74
2021/01/01 07:48:31;;;;;;;45.73;22.23;;;;;;;-1.12;94.72;99132.20;1825722;77;25291;-74
2021/01/01 07:50:59;;;;;;;34.03;16.83;;;;;;;-1.06;94.77;99131.57;1825627;77;25262;-77
2021/01/01 07:53:26;;;;;;;45.23;20.90;;;;;;;-1.00;94.69;99124.89;1825803;78;25260;-77
2021/01/01 07:55:52;;;;;;;46.37;22.90;;;;;;;-0.97;94.66;99124.78;1811696;78;25137;-75
2021/01/01 07:58:19;;;;;;;47.53;21.70;;;;;;;-0.95;94.60;99129.43;1801461;79;25697;-75
2021/01/01 08:00:46;;;;;;;40.93;19.83;;;;;;;-0.90;94.67;99126.22;1801404;78;25194;-75
2021/01/01 08:03:15;;;;;;;40.03;19.27;;;;;;;-0.91;94.66;99119.36;1801193;78;25672;-75
2021/01/01 08:05:44;;;;;;;42.47;20.97;;;;;;;-0.88;94.69;99130.03;1801190;78;25268;-75
2021/01/01 08:08:17;;;;;;;46.33;22.10;;;;;;;-0.86;94.63;99134.69;1801276;79;25280;-75
2021/01/01 08:10:45;;;;;;;45.53;22.43;;;;;;;-0.81;94.55;99143.92;1801486;79;25051;-75
2021/01/01 08:13:25;;;;;;;39.80;20.10;;;;;;;-0.77;94.43;99135.17;1801401;79;25261;-75
2021/01/01 08:15:58;;;;;;;43.20;18.87;;;;;;;-0.82;94.38;99138.38;1801365;79;25353;-75
2021/01/01 08:18:26;;;;;;;42.27;19.90;;;;;;;-0.80;94.36;99135.74;1798788;78;25269;-75
2021/01/01 08:20:58;;;;;;;48.73;22.83;;;;;;;-0.79;94.36;99139.56;1801464;79;25356;-75
2021/01/01 08:23:26;;;;;;;42.07;20.07;;;;;;;-0.78;94.35;99135.23;1801402;79;25209;-75
2021/01/01 08:25:54;;;;;;;46.73;21.90;;;;;;;-0.75;94.41;99132.53;1801418;78;25331;-75
2021/01/01 08:28:24;;;;;;;43.00;21.87;;;;;;;-0.72;94.43;99136.29;1801326;78;25284;-75
2021/01/01 08:30:58;;;;;;;36.90;17.93;;;;;;;-0.70;94.34;99141.36;1801374;78;25142;-76
2021/01/01 08:33:26;;;;;;;46.20;20.10;;;;;;;-0.68;94.28;99142.17;1801344;79;25083;-75
2021/01/01 08:36:04;;;;;;;39.10;18.77;;;;;;;-0.65;94.27;99151.92;1801398;78;25265;-75
2021/01/01 08:38:31;;;;;;;46.43;22.30;;;;;;;-0.67;94.24;99149.00;1801462;79;25079;-74
2021/01/01 08:40:58;;;;;;;39.13;19.30;;;;;;;-0.64;94.15;99153.59;1801378;79;25574;-75
2021/01/01 08:43:26;;;;;;;53.27;24.63;;;;;;;-0.66;94.26;99154.11;1801340;79;25213;-74
2021/01/01 08:45:53;;;;;;;52.67;23.67;;;;;;;-0.58;94.20;99157.23;1801344;79;25166;-75
2021/01/01 08:48:20;;;;;;;45.80;21.37;;;;;;;-0.64;94.03;99152.30;1801355;79;25171;-74
2021/01/01 08:50:50;;;;;;;48.03;21.90;;;;;;;-0.59;94.04;99157.29;1801441;78;25205;-75
2021/01/01 08:53:18;;;;;;;46.67;21.20;;;;;;;-0.58;94.00;99154.65;1772359;79;25070;-74
2021/01/01 08:55:58;;;;;;;55.60;25.10;;;;;;;-0.51;93.95;99151.38;1809635;78;25599;-74
2021/01/01 08:58:26;;;;;;;55.47;25.30;;;;;;;-0.49;93.67;99158.60;1825658;78;25788;-75
2021/01/01 09:00:53;;;;;;;54.53;24.87;;;;;;;-0.44;93.80;99159.72;1825725;78;25805;-75
2021/01/01 09:03:23;;;;;;;54.33;25.57;;;;;;;-0.38;93.84;99160.31;1793875;78;25568;-75
2021/01/01 09:05:55;;;;;;;46.00;21.87;;;;;;;-0.27;93.98;99164.20;1825458;78;25196;-77
2021/01/01 09:08:23;;;;;;;55.70;25.40;;;;;;;-0.17;93.76;99161.63;1825624;77;25296;-75
2021/01/01 09:10:54;;;;;;;59.37;27.67;;;;;;;-0.10;93.64;99168.69;1825735;78;25318;-74
2021/01/01 09:13:26;;;;;;;54.40;25.37;;;;;;;-0.03;93.68;99172.72;1825610;78;25296;-75
2021/01/01 09:16:05;;;;;;;64.30;34.63;;;;;;;0.08;93.68;99177.43;1825743;78;25330;-75
2021/01/01 09:18:31;;;;;;;58.83;27.40;;;;;;;0.13;93.44;99180.20;1821188;78;25081;-75
2021/01/01 09:21:10;;;;;;;53.30;24.63;;;;;;;0.11;92.93;99182.02;1825756;78;25165;-75
2021/01/01 09:23:43;;;;;;;45.57;21.93;;;;;;;0.14;92.91;99175.42;1824874;78;25184;-76
2021/01/01 09:26:29;;;;;;;52.77;25.90;;;;;;;0.16;92.90;99180.08;1825928;78;25679;-76
2021/01/01 09:29:05;;;;;;;52.57;27.10;;;;;;;0.13;92.68;99182.78;1825860;78;25711;-76
2021/01/01 09:31:33;;;;;;;54.87;26.33;;;;;;;0.12;92.61;99182.88;1825238;78;25263;-75
2021/01/01 09:34:05;;;;;;;50.70;23.70;;;;;;;0.17;92.79;99186.11;1825895;78;25220;-75
2021/01/01 09:36:35;;;;;;;48.67;22.47;;;;;;;0.19;92.59;99184.30;1825879;78;25195;-75
2021/01/01 09:39:06;;;;;;;44.80;20.80;;;;;;;0.22;92.50;99190.63;1825833;78;25219;-74
2021/01/01 09:41:32;;;;;;;54.17;25.90;;;;;;;0.13;91.93;99190.55;1825758;77;25798;-74
2021/01/01 09:43:58;;;;;;;53.33;25.03;;;;;;;0.06;91.78;99185.25;1825837;78;25287;-75
2021/01/01 09:46:27;;;;;;;51.77;24.00;;;;;;;-0.01;91.89;99181.25;1825736;78;25575;-75
2021/01/01 09:48:54;;;;;;;46.33;23.17;;;;;;;-0.02;92.02;99173.95;1825901;78;25121;-75
2021/01/01 09:51:21;;;;;;;59.50;33.20;;;;;;;0.01;92.00;99178.60;1825744;77;25669;-75
2021/01/01 09:53:48;;;;;;;49.10;24.53;;;;;;;0.07;91.95;99183.49;1825798;78;25196;-75
2021/01/01 09:56:14;;;;;;;53.07;26.00;;;;;;;0.03;91.76;99172.91;1816062;78;25292;-74
2021/01/01 09:58:41;;;;;;;66.13;32.67;;;;;;;-0.02;91.79;99173.95;1801672;79;25177;-75
2021/01/01 10:01:07;;;;;;;60.97;29.90;;;;;;;-0.03;91.86;99176.13;1801432;78;25118;-75
2021/01/01 10:03:34;;;;;;;52.60;25.10;;;;;;;0.02;92.00;99182.41;1801416;79;25544;-75
2021/01/01 10:06:01;;;;;;;56.30;26.80;;;;;;;-0.03;91.47;99174.84;1801491;78;25167;-75
2021/01/01 10:08:28;;;;;;;72.17;37.20;;;;;;;0.04;91.82;99170.72;1801436;78;25272;-75
2021/01/01 10:10:56;;;;;;;61.43;32.67;;;;;;;0.14;92.00;99168.13;1801451;78;25142;-75
2021/01/01 10:13:23;;;;;;;62.70;29.70;;;;;;;0.22;91.87;99169.95;1801481;78;25197;-75
2021/01/01 10:15:49;;;;;;;55.07;27.13;;;;;;;0.26;91.69;99170.65;1801444;79;25621;-75
2021/01/01 10:18:16;;;;;;;61.10;30.87;;;;;;;0.27;91.51;99173.17;1801442;78;25168;-75
2021/01/01 10:20:44;;;;;;;65.73;31.63;;;;;;;0.33;91.57;99163.84;1801329;78;25564;-75
2021/01/01 10:23:10;;;;;;;55.87;29.60;;;;;;;0.36;91.26;99166.76;1801532;79;25276;-76
2021/01/01 10:25:38;;;;;;;67.00;32.00;;;;;;;0.36;91.38;99166.30;1801247;78;25601;-75
2021/01/01 10:28:04;;;;;;;68.13;34.83;;;;;;;0.44;91.41;99165.14;1801383;79;25690;-75
2021/01/01 10:30:31;;;;;;;106.10;52.17;;;;;;;0.48;91.16;99167.51;1801382;78;25265;-75
2021/01/01 10:32:57;;;;;;;61.13;30.07;;;;;;;0.45;90.67;99169.39;1801342;79;25759;-75
2021/01/01 10:35:24;;;;;;;69.97;32.20;;;;;;;0.48;91.03;99167.51;1801446;79;25336;-75
2021/01/01 10:37:51;;;;;;;66.50;31.00;;;;;;;0.45;90.74;99164.22;1801365;78;25151;-75
2021/01/01 10:40:18;;;;;;;72.20;33.23;;;;;;;0.49;90.68;99166.61;1801511;78;25119;-75
2021/01/01 10:42:44;;;;;;;78.83;35.30;;;;;;;0.45;90.69;99157.75;1801381;78;25110;-77
2021/01/01 10:45:13;;;;;;;91.40;39.93;;;;;;;0.39;90.88;99157.58;1801407;78;25695;-75
2021/01/01 10:47:39;;;;;;;73.93;33.83;;;;;;;0.44;90.99;99153.04;1801428;78;25213;-75
2021/01/01 10:50:09;;;;;;;78.23;34.47;;;;;;;0.48;91.12;99155.03;1801386;78;25122;-76
2021/01/01 10:52:35;;;;;;;79.03;35.87;;;;;;;0.52;91.03;99158.72;1798747;79;25119;-75
2021/01/01 10:55:03;;;;;;;70.60;31.20;;;;;;;0.53;90.87;99155.67;1801323;78;25199;-75
2021/01/01 10:57:30;;;;;;;89.87;40.80;;;;;;;0.53;90.91;99156.97;1820002;78;25145;-76
2021/01/01 10:59:56;;;;;;;78.60;37.47;;;;;;;0.55;90.97;99155.14;1825902;78;25255;-76
2021/01/01 11:02:23;;;;;;;83.80;40.43;;;;;;;0.62;90.87;99155.28;1825795;78;25247;-76
2021/01/01 11:04:50;;;;;;;71.63;35.87;;;;;;;0.71;90.96;99156.15;1825749;78;25756;-76
2021/01/01 11:07:17;;;;;;;76.10;38.37;;;;;;;0.82;90.55;99155.69;1825746;78;25196;-76
2021/01/01 11:09:43;;;;;;;80.37;39.70;;;;;;;0.91;90.26;99158.30;1825583;78;25346;-76
2021/01/01 11:12:10;;;;;;;78.30;36.67;;;;;;;0.94;89.94;99151.70;1825735;78;25793;-76
2021/01/01 11:14:58;;;;;;;69.60;32.63;;;;;;;0.97;89.73;99147.64;1794072;78;25109;-76
2021/01/01 12:26:55;;;;;;;47.17;22.87;;;;;;;1.16;88.87;99123.05;1753219;81;25262;-78
2021/01/01 12:29:23;;;;;;;46.83;26.57;;;;;;;1.18;88.67;99118.63;1753333;81;25095;-76
2021/01/01 12:31:50;;;;;;;48.57;25.40;;;;;;;1.17;88.75;99113.52;1723964;81;25730;-78
2021/01/01 12:34:16;;;;;;;54.57;28.37;;;;;;;1.15;88.72;99111.00;1753226;81;25188;-78
2021/01/01 12:36:43;;;;;;;52.70;27.53;;;;;;;1.13;88.92;99108.11;1753159;81;25236;-78
2021/01/01 12:39:10;;;;;;;71.70;41.17;;;;;;;1.16;89.03;99117.00;1752895;81;25298;-77